sensor_id;sensor_type;location;lat;lon;timestamp;P1;durP1;ratioP1;P2;durP2;ratioP2
489;SDS011;231;48.120;11.576;2023-08-06T00:00:22;10.43;;;9.90;;
489;SDS011;231;48.120;11.576;2023-08-06T00:02:49;12.07;;;11.47;;
489;SDS011;231;48.120;11.576;2023-08-06T00:05:16;13.37;;;12.67;;
489;SDS011;231;48.120;11.576;2023-08-06T00:07:45;11.13;;;10.53;;
489;SDS011;231;48.120;11.576;2023-08-06T00:10:14;10.30;;;9.80;;
489;SDS011;231;48.120;11.576;2023-08-06T00:12:41;11.13;;;10.53;;
489;SDS011;231;48.120;11.576;2023-08-06T00:15:08;11.70;;;11.10;;
489;SDS011;231;48.120;11.576;2023-08-06T00:17:35;11.00;;;10.40;;
489;SDS011;231;48.120;11.576;2023-08-06T00:20:03;11.33;;;10.73;;
489;SDS011;231;48.120;11.576;2023-08-06T00:22:31;12.27;;;11.67;;
489;SDS011;231;48.120;11.576;2023-08-06T00:24:58;10.83;;;10.23;;
489;SDS011;231;48.120;11.576;2023-08-06T00:27:26;9.80;;;9.30;;
489;SDS011;231;48.120;11.576;2023-08-06T00:29:53;8.90;;;8.40;;
489;SDS011;231;48.120;11.576;2023-08-06T00:32:20;10.10;;;9.60;;
489;SDS011;231;48.120;11.576;2023-08-06T00:34:47;7.63;;;7.23;;
489;SDS011;231;48.120;11.576;2023-08-06T00:37:14;9.50;;;9.00;;
489;SDS011;231;48.120;11.576;2023-08-06T00:39:42;8.33;;;7.90;;
489;SDS011;231;48.120;11.576;2023-08-06T00:42:09;9.30;;;8.80;;
489;SDS011;231;48.120;11.576;2023-08-06T00:44:38;9.93;;;8.77;;
489;SDS011;231;48.120;11.576;2023-08-06T00:47:06;8.07;;;7.67;;
489;SDS011;231;48.120;11.576;2023-08-06T00:49:34;9.07;;;8.60;;
489;SDS011;231;48.120;11.576;2023-08-06T00:52:02;8.43;;;7.97;;
489;SDS011;231;48.120;11.576;2023-08-06T00:54:31;8.60;;;7.60;;
489;SDS011;231;48.120;11.576;2023-08-06T00:56:58;9.30;;;8.00;;
489;SDS011;231;48.120;11.576;2023-08-06T00:59:27;8.63;;;8.13;;
489;SDS011;231;48.120;11.576;2023-08-06T01:01:55;8.57;;;8.00;;
489;SDS011;231;48.120;11.576;2023-08-06T01:04:22;9.73;;;8.50;;
489;SDS011;231;48.120;11.576;2023-08-06T01:06:51;8.10;;;7.70;;
489;SDS011;231;48.120;11.576;2023-08-06T01:09:31;8.43;;;7.97;;
489;SDS011;231;48.120;11.576;2023-08-06T01:12:05;7.53;;;7.13;;
489;SDS011;231;48.120;11.576;2023-08-06T01:14:39;8.20;;;7.80;;
489;SDS011;231;48.120;11.576;2023-08-06T01:17:15;9.60;;;9.10;;
489;SDS011;231;48.120;11.576;2023-08-06T01:19:43;10.40;;;9.90;;
489;SDS011;231;48.120;11.576;2023-08-06T01:22:11;9.77;;;9.27;;
489;SDS011;231;48.120;11.576;2023-08-06T01:24:37;9.70;;;9.20;;
489;SDS011;231;48.120;11.576;2023-08-06T01:27:06;10.67;;;10.10;;
489;SDS011;231;48.120;11.576;2023-08-06T01:29:38;10.83;;;10.23;;
489;SDS011;231;48.120;11.576;2023-08-06T01:32:10;14.70;;;12.00;;
489;SDS011;231;48.120;11.576;2023-08-06T01:34:40;11.97;;;11.37;;
489;SDS011;231;48.120;11.576;2023-08-06T01:37:11;14.37;;;13.23;;
489;SDS011;231;48.120;11.576;2023-08-06T01:39:39;11.07;;;10.50;;
489;SDS011;231;48.120;11.576;2023-08-06T01:42:08;11.87;;;11.27;;
489;SDS011;231;48.120;11.576;2023-08-06T01:44:35;12.30;;;10.40;;
489;SDS011;231;48.120;11.576;2023-08-06T01:47:02;10.80;;;10.00;;
489;SDS011;231;48.120;11.576;2023-08-06T01:49:29;12.70;;;10.73;;
489;SDS011;231;48.120;11.576;2023-08-06T01:51:56;12.33;;;11.73;;
489;SDS011;231;48.120;11.576;2023-08-06T01:54:24;12.23;;;11.63;;
489;SDS011;231;48.120;11.576;2023-08-06T01:56:51;9.60;;;9.10;;
489;SDS011;231;48.120;11.576;2023-08-06T01:59:18;10.67;;;10.07;;
489;SDS011;231;48.120;11.576;2023-08-06T02:01:44;9.90;;;9.40;;
489;SDS011;231;48.120;11.576;2023-08-06T02:04:11;10.67;;;9.60;;
489;SDS011;231;48.120;11.576;2023-08-06T02:06:38;10.77;;;10.17;;
489;SDS011;231;48.120;11.576;2023-08-06T02:09:05;9.60;;;9.10;;
489;SDS011;231;48.120;11.576;2023-08-06T02:11:33;17.33;;;11.10;;
489;SDS011;231;48.120;11.576;2023-08-06T02:14:00;10.13;;;9.63;;
489;SDS011;231;48.120;11.576;2023-08-06T02:16:26;10.67;;;9.57;;
489;SDS011;231;48.120;11.576;2023-08-06T02:18:53;9.13;;;8.63;;
489;SDS011;231;48.120;11.576;2023-08-06T02:21:20;9.13;;;8.63;;
489;SDS011;231;48.120;11.576;2023-08-06T02:23:47;9.37;;;8.87;;
489;SDS011;231;48.120;11.576;2023-08-06T02:26:13;8.60;;;8.10;;
489;SDS011;231;48.120;11.576;2023-08-06T02:28:41;9.50;;;9.00;;
489;SDS011;231;48.120;11.576;2023-08-06T02:31:08;9.50;;;9.00;;
489;SDS011;231;48.120;11.576;2023-08-06T02:33:35;10.13;;;8.20;;
489;SDS011;231;48.120;11.576;2023-08-06T02:36:02;8.97;;;8.47;;
489;SDS011;231;48.120;11.576;2023-08-06T02:38:29;8.63;;;8.13;;
489;SDS011;231;48.120;11.576;2023-08-06T02:40:56;8.20;;;7.80;;
489;SDS011;231;48.120;11.576;2023-08-06T02:43:23;8.43;;;7.97;;
489;SDS011;231;48.120;11.576;2023-08-06T02:45:52;8.00;;;7.60;;
489;SDS011;231;48.120;11.576;2023-08-06T02:48:22;8.30;;;7.90;;
489;SDS011;231;48.120;11.576;2023-08-06T02:50:49;6.90;;;6.50;;
489;SDS011;231;48.120;11.576;2023-08-06T02:53:16;7.73;;;7.33;;
489;SDS011;231;48.120;11.576;2023-08-06T02:55:45;8.07;;;7.67;;
489;SDS011;231;48.120;11.576;2023-08-06T02:58:12;9.63;;;7.77;;
489;SDS011;231;48.120;11.576;2023-08-06T03:00:39;7.57;;;7.17;;
489;SDS011;231;48.120;11.576;2023-08-06T03:03:08;7.27;;;6.87;;
489;SDS011;231;48.120;11.576;2023-08-06T03:05:35;7.43;;;7.03;;
489;SDS011;231;48.120;11.576;2023-08-06T03:08:02;7.73;;;7.33;;
489;SDS011;231;48.120;11.576;2023-08-06T03:10:29;7.10;;;6.70;;
489;SDS011;231;48.120;11.576;2023-08-06T03:12:55;6.90;;;6.50;;
489;SDS011;231;48.120;11.576;2023-08-06T03:15:22;8.40;;;6.30;;
489;SDS011;231;48.120;11.576;2023-08-06T03:17:49;7.50;;;7.10;;
489;SDS011;231;48.120;11.576;2023-08-06T03:20:17;6.70;;;6.30;;
489;SDS011;231;48.120;11.576;2023-08-06T03:22:44;5.80;;;5.50;;
489;SDS011;231;48.120;11.576;2023-08-06T03:25:11;7.03;;;6.63;;
489;SDS011;231;48.120;11.576;2023-08-06T03:27:38;7.83;;;7.43;;
489;SDS011;231;48.120;11.576;2023-08-06T03:30:05;7.80;;;7.40;;
489;SDS011;231;48.120;11.576;2023-08-06T03:32:33;6.90;;;6.50;;
489;SDS011;231;48.120;11.576;2023-08-06T03:35:00;6.40;;;6.00;;
489;SDS011;231;48.120;11.576;2023-08-06T03:37:28;6.17;;;5.87;;
489;SDS011;231;48.120;11.576;2023-08-06T03:39:54;6.93;;;6.53;;
489;SDS011;231;48.120;11.576;2023-08-06T03:42:21;6.10;;;5.83;;
489;SDS011;231;48.120;11.576;2023-08-06T03:44:48;6.00;;;5.70;;
489;SDS011;231;48.120;11.576;2023-08-06T03:47:15;6.50;;;6.10;;
489;SDS011;231;48.120;11.576;2023-08-06T03:49:42;6.80;;;6.40;;
489;SDS011;231;48.120;11.576;2023-08-06T03:52:09;6.57;;;5.47;;
489;SDS011;231;48.120;11.576;2023-08-06T03:54:37;6.00;;;5.70;;
489;SDS011;231;48.120;11.576;2023-08-06T03:57:04;5.77;;;5.47;;
489;SDS011;231;48.120;11.576;2023-08-06T03:59:31;6.93;;;6.53;;
489;SDS011;231;48.120;11.576;2023-08-06T04:01:58;8.03;;;6.13;;
489;SDS011;231;48.120;11.576;2023-08-06T04:04:25;5.97;;;5.67;;
489;SDS011;231;48.120;11.576;2023-08-06T04:06:52;6.13;;;5.83;;
489;SDS011;231;48.120;11.576;2023-08-06T04:09:19;7.03;;;6.63;;
489;SDS011;231;48.120;11.576;2023-08-06T04:11:47;5.87;;;5.57;;
489;SDS011;231;48.120;11.576;2023-08-06T04:14:14;6.33;;;5.97;;
489;SDS011;231;48.120;11.576;2023-08-06T04:16:40;5.70;;;4.80;;
489;SDS011;231;48.120;11.576;2023-08-06T04:19:07;7.70;;;6.30;;
489;SDS011;231;48.120;11.576;2023-08-06T04:21:34;5.80;;;5.50;;
489;SDS011;231;48.120;11.576;2023-08-06T04:24:01;5.77;;;5.47;;
489;SDS011;231;48.120;11.576;2023-08-06T04:26:28;8.27;;;5.93;;
489;SDS011;231;48.120;11.576;2023-08-06T04:28:56;5.67;;;5.37;;
489;SDS011;231;48.120;11.576;2023-08-06T04:31:23;7.67;;;6.07;;
489;SDS011;231;48.120;11.576;2023-08-06T04:33:50;6.57;;;6.17;;
489;SDS011;231;48.120;11.576;2023-08-06T04:36:17;5.70;;;5.40;;
489;SDS011;231;48.120;11.576;2023-08-06T04:38:45;5.23;;;4.93;;
489;SDS011;231;48.120;11.576;2023-08-06T04:41:12;4.90;;;4.60;;
489;SDS011;231;48.120;11.576;2023-08-06T04:43:39;7.30;;;5.97;;
489;SDS011;231;48.120;11.576;2023-08-06T04:46:07;5.77;;;5.47;;
489;SDS011;231;48.120;11.576;2023-08-06T04:48:34;4.40;;;4.10;;
489;SDS011;231;48.120;11.576;2023-08-06T04:51:00;4.90;;;4.60;;
489;SDS011;231;48.120;11.576;2023-08-06T04:53:27;5.40;;;5.10;;
489;SDS011;231;48.120;11.576;2023-08-06T04:55:54;4.50;;;4.20;;
489;SDS011;231;48.120;11.576;2023-08-06T04:58:21;5.73;;;5.43;;
489;SDS011;231;48.120;11.576;2023-08-06T05:00:47;4.80;;;4.50;;
489;SDS011;231;48.120;11.576;2023-08-06T05:03:16;5.27;;;4.97;;
489;SDS011;231;48.120;11.576;2023-08-06T05:05:42;4.93;;;4.63;;
489;SDS011;231;48.120;11.576;2023-08-06T05:08:13;4.70;;;4.43;;
489;SDS011;231;48.120;11.576;2023-08-06T05:10:42;4.80;;;4.50;;
489;SDS011;231;48.120;11.576;2023-08-06T05:13:09;5.10;;;4.80;;
489;SDS011;231;48.120;11.576;2023-08-06T05:15:36;5.30;;;5.00;;
489;SDS011;231;48.120;11.576;2023-08-06T05:18:02;4.43;;;3.80;;
489;SDS011;231;48.120;11.576;2023-08-06T05:20:31;5.40;;;5.10;;
489;SDS011;231;48.120;11.576;2023-08-06T05:23:01;4.07;;;3.87;;
489;SDS011;231;48.120;11.576;2023-08-06T05:25:28;4.73;;;4.43;;
489;SDS011;231;48.120;11.576;2023-08-06T05:27:55;4.07;;;3.87;;
489;SDS011;231;48.120;11.576;2023-08-06T05:30:22;3.80;;;3.60;;
489;SDS011;231;48.120;11.576;2023-08-06T05:32:49;5.30;;;3.80;;
489;SDS011;231;48.120;11.576;2023-08-06T05:35:15;4.90;;;4.60;;
489;SDS011;231;48.120;11.576;2023-08-06T05:37:44;4.67;;;4.37;;
489;SDS011;231;48.120;11.576;2023-08-06T05:40:12;3.77;;;3.57;;
489;SDS011;231;48.120;11.576;2023-08-06T05:42:38;3.93;;;3.73;;
489;SDS011;231;48.120;11.576;2023-08-06T05:45:06;4.13;;;3.40;;
489;SDS011;231;48.120;11.576;2023-08-06T05:47:33;4.50;;;3.07;;
489;SDS011;231;48.120;11.576;2023-08-06T05:50:00;3.50;;;3.10;;
489;SDS011;231;48.120;11.576;2023-08-06T05:52:27;3.47;;;3.27;;
489;SDS011;231;48.120;11.576;2023-08-06T05:54:55;8.27;;;3.50;;
489;SDS011;231;48.120;11.576;2023-08-06T05:57:22;3.53;;;3.20;;
489;SDS011;231;48.120;11.576;2023-08-06T05:59:48;3.63;;;3.43;;
489;SDS011;231;48.120;11.576;2023-08-06T06:02:15;3.10;;;2.90;;
489;SDS011;231;48.120;11.576;2023-08-06T06:04:43;3.30;;;3.10;;
489;SDS011;231;48.120;11.576;2023-08-06T06:07:10;5.50;;;4.07;;
489;SDS011;231;48.120;11.576;2023-08-06T06:09:37;3.00;;;2.80;;
489;SDS011;231;48.120;11.576;2023-08-06T06:12:06;3.17;;;2.97;;
489;SDS011;231;48.120;11.576;2023-08-06T06:14:33;2.40;;;2.20;;
489;SDS011;231;48.120;11.576;2023-08-06T06:17:00;2.90;;;2.70;;
489;SDS011;231;48.120;11.576;2023-08-06T06:19:26;3.33;;;2.90;;
489;SDS011;231;48.120;11.576;2023-08-06T06:21:53;3.07;;;2.47;;
489;SDS011;231;48.120;11.576;2023-08-06T06:24:22;2.33;;;2.13;;
489;SDS011;231;48.120;11.576;2023-08-06T06:26:49;2.43;;;2.23;;
489;SDS011;231;48.120;11.576;2023-08-06T06:29:17;2.13;;;1.97;;
489;SDS011;231;48.120;11.576;2023-08-06T06:31:44;2.27;;;2.07;;
489;SDS011;231;48.120;11.576;2023-08-06T06:34:11;2.27;;;2.10;;
489;SDS011;231;48.120;11.576;2023-08-06T06:36:38;2.27;;;2.10;;
489;SDS011;231;48.120;11.576;2023-08-06T06:39:04;2.30;;;2.10;;
489;SDS011;231;48.120;11.576;2023-08-06T06:41:31;2.40;;;2.20;;
489;SDS011;231;48.120;11.576;2023-08-06T06:43:58;3.80;;;2.63;;
489;SDS011;231;48.120;11.576;2023-08-06T06:46:26;4.50;;;2.50;;
489;SDS011;231;48.120;11.576;2023-08-06T06:48:53;1.90;;;1.80;;
489;SDS011;231;48.120;11.576;2023-08-06T06:51:20;2.57;;;2.07;;
489;SDS011;231;48.120;11.576;2023-08-06T06:53:46;1.60;;;1.50;;
489;SDS011;231;48.120;11.576;2023-08-06T06:56:13;2.00;;;1.83;;
489;SDS011;231;48.120;11.576;2023-08-06T06:58:40;4.20;;;2.17;;
489;SDS011;231;48.120;11.576;2023-08-06T07:01:07;2.53;;;2.00;;
489;SDS011;231;48.120;11.576;2023-08-06T07:03:37;2.33;;;1.80;;
489;SDS011;231;48.120;11.576;2023-08-06T07:06:04;1.97;;;1.80;;
489;SDS011;231;48.120;11.576;2023-08-06T07:08:31;2.33;;;1.83;;
489;SDS011;231;48.120;11.576;2023-08-06T07:11:01;2.27;;;1.70;;
489;SDS011;231;48.120;11.576;2023-08-06T07:13:29;2.97;;;1.80;;
489;SDS011;231;48.120;11.576;2023-08-06T07:15:56;1.93;;;1.60;;
489;SDS011;231;48.120;11.576;2023-08-06T07:18:23;1.50;;;1.47;;
489;SDS011;231;48.120;11.576;2023-08-06T07:20:52;1.63;;;1.53;;
489;SDS011;231;48.120;11.576;2023-08-06T07:23:19;1.60;;;1.50;;
489;SDS011;231;48.120;11.576;2023-08-06T07:25:47;1.20;;;1.17;;
489;SDS011;231;48.120;11.576;2023-08-06T07:28:14;1.40;;;1.20;;
489;SDS011;231;48.120;11.576;2023-08-06T07:30:42;1.73;;;1.10;;
489;SDS011;231;48.120;11.576;2023-08-06T07:33:10;4.50;;;1.23;;
489;SDS011;231;48.120;11.576;2023-08-06T07:35:37;0.93;;;0.90;;
489;SDS011;231;48.120;11.576;2023-08-06T07:38:07;1.30;;;1.20;;
489;SDS011;231;48.120;11.576;2023-08-06T07:40:35;1.47;;;1.37;;
489;SDS011;231;48.120;11.576;2023-08-06T07:43:02;1.10;;;1.00;;
489;SDS011;231;48.120;11.576;2023-08-06T07:45:32;2.60;;;1.20;;
489;SDS011;231;48.120;11.576;2023-08-06T07:48:00;1.97;;;1.30;;
489;SDS011;231;48.120;11.576;2023-08-06T07:50:27;1.30;;;1.20;;
489;SDS011;231;48.120;11.576;2023-08-06T07:52:54;1.00;;;0.93;;
489;SDS011;231;48.120;11.576;2023-08-06T07:55:23;1.00;;;0.93;;
489;SDS011;231;48.120;11.576;2023-08-06T07:57:50;1.33;;;0.90;;
489;SDS011;231;48.120;11.576;2023-08-06T08:00:17;1.20;;;1.20;;
489;SDS011;231;48.120;11.576;2023-08-06T08:02:44;2.13;;;1.40;;
489;SDS011;231;48.120;11.576;2023-08-06T08:05:11;2.50;;;1.20;;
489;SDS011;231;48.120;11.576;2023-08-06T08:07:38;2.23;;;1.00;;
489;SDS011;231;48.120;11.576;2023-08-06T08:10:05;1.50;;;1.20;;
489;SDS011;231;48.120;11.576;2023-08-06T08:12:38;2.40;;;1.17;;
489;SDS011;231;48.120;11.576;2023-08-06T08:15:05;1.10;;;1.00;;
489;SDS011;231;48.120;11.576;2023-08-06T08:17:32;1.00;;;0.90;;
489;SDS011;231;48.120;11.576;2023-08-06T08:19:59;1.40;;;1.10;;
489;SDS011;231;48.120;11.576;2023-08-06T08:22:28;1.63;;;1.20;;
489;SDS011;231;48.120;11.576;2023-08-06T08:24:55;1.17;;;0.87;;
489;SDS011;231;48.120;11.576;2023-08-06T08:27:22;2.23;;;1.60;;
489;SDS011;231;48.120;11.576;2023-08-06T08:29:50;0.93;;;0.90;;
489;SDS011;231;48.120;11.576;2023-08-06T08:32:17;1.23;;;1.13;;
489;SDS011;231;48.120;11.576;2023-08-06T08:34:44;0.97;;;0.93;;
489;SDS011;231;48.120;11.576;2023-08-06T08:37:12;0.80;;;0.80;;
489;SDS011;231;48.120;11.576;2023-08-06T08:39:40;1.20;;;0.83;;
489;SDS011;231;48.120;11.576;2023-08-06T08:42:06;3.00;;;0.90;;
489;SDS011;231;48.120;11.576;2023-08-06T08:44:34;1.73;;;0.70;;
489;SDS011;231;48.120;11.576;2023-08-06T08:47:05;1.47;;;0.90;;
489;SDS011;231;48.120;11.576;2023-08-06T08:49:33;0.80;;;0.70;;
489;SDS011;231;48.120;11.576;2023-08-06T08:52:02;0.80;;;0.77;;
489;SDS011;231;48.120;11.576;2023-08-06T08:54:31;0.90;;;0.70;;
489;SDS011;231;48.120;11.576;2023-08-06T08:56:59;1.30;;;0.73;;
489;SDS011;231;48.120;11.576;2023-08-06T08:59:26;2.30;;;0.80;;
489;SDS011;231;48.120;11.576;2023-08-06T09:01:54;0.83;;;0.77;;
489;SDS011;231;48.120;11.576;2023-08-06T09:04:24;0.83;;;0.60;;
489;SDS011;231;48.120;11.576;2023-08-06T09:06:58;1.43;;;0.80;;
489;SDS011;231;48.120;11.576;2023-08-06T09:09:33;0.60;;;0.50;;
489;SDS011;231;48.120;11.576;2023-08-06T09:12:06;0.77;;;0.73;;
489;SDS011;231;48.120;11.576;2023-08-06T09:14:38;1.30;;;0.60;;
489;SDS011;231;48.120;11.576;2023-08-06T09:17:05;0.70;;;0.70;;
489;SDS011;231;48.120;11.576;2023-08-06T09:19:39;1.27;;;0.53;;
489;SDS011;231;48.120;11.576;2023-08-06T09:22:11;0.80;;;0.70;;
489;SDS011;231;48.120;11.576;2023-08-06T09:24:39;0.93;;;0.60;;
489;SDS011;231;48.120;11.576;2023-08-06T09:27:10;1.03;;;0.70;;
489;SDS011;231;48.120;11.576;2023-08-06T09:29:41;0.60;;;0.60;;
489;SDS011;231;48.120;11.576;2023-08-06T09:32:10;1.33;;;0.60;;
489;SDS011;231;48.120;11.576;2023-08-06T09:34:41;0.50;;;0.50;;
489;SDS011;231;48.120;11.576;2023-08-06T09:37:08;0.53;;;0.50;;
489;SDS011;231;48.120;11.576;2023-08-06T09:39:37;0.90;;;0.80;;
489;SDS011;231;48.120;11.576;2023-08-06T09:42:05;2.23;;;1.53;;
489;SDS011;231;48.120;11.576;2023-08-06T09:44:32;2.83;;;1.03;;
489;SDS011;231;48.120;11.576;2023-08-06T09:47:00;0.77;;;0.60;;
489;SDS011;231;48.120;11.576;2023-08-06T09:49:41;0.63;;;0.57;;
489;SDS011;231;48.120;11.576;2023-08-06T09:52:11;0.93;;;0.50;;
489;SDS011;231;48.120;11.576;2023-08-06T09:54:40;4.53;;;1.07;;
489;SDS011;231;48.120;11.576;2023-08-06T09:57:09;0.40;;;0.40;;
489;SDS011;231;48.120;11.576;2023-08-06T09:59:38;0.63;;;0.50;;
489;SDS011;231;48.120;11.576;2023-08-06T10:02:11;0.53;;;0.50;;
489;SDS011;231;48.120;11.576;2023-08-06T10:04:40;0.70;;;0.30;;
489;SDS011;231;48.120;11.576;2023-08-06T10:07:10;0.60;;;0.50;;
489;SDS011;231;48.120;11.576;2023-08-06T10:09:37;1.83;;;0.83;;
489;SDS011;231;48.120;11.576;2023-08-06T10:12:04;0.60;;;0.40;;
489;SDS011;231;48.120;11.576;2023-08-06T10:14:33;1.63;;;0.53;;
489;SDS011;231;48.120;11.576;2023-08-06T10:17:01;0.50;;;0.40;;
489;SDS011;231;48.120;11.576;2023-08-06T10:19:29;0.73;;;0.50;;
489;SDS011;231;48.120;11.576;2023-08-06T10:22:12;1.33;;;0.40;;
489;SDS011;231;48.120;11.576;2023-08-06T10:24:48;0.80;;;0.63;;
489;SDS011;231;48.120;11.576;2023-08-06T10:27:20;1.23;;;0.40;;
489;SDS011;231;48.120;11.576;2023-08-06T10:29:48;0.63;;;0.57;;
489;SDS011;231;48.120;11.576;2023-08-06T10:32:15;0.70;;;0.67;;
489;SDS011;231;48.120;11.576;2023-08-06T10:34:53;0.73;;;0.50;;
489;SDS011;231;48.120;11.576;2023-08-06T10:37:23;1.37;;;0.70;;
489;SDS011;231;48.120;11.576;2023-08-06T10:39:52;0.60;;;0.50;;
489;SDS011;231;48.120;11.576;2023-08-06T10:42:19;1.40;;;0.57;;
489;SDS011;231;48.120;11.576;2023-08-06T10:45:12;2.10;;;1.13;;
489;SDS011;231;48.120;11.576;2023-08-06T10:47:43;1.50;;;1.10;;
489;SDS011;231;48.120;11.576;2023-08-06T10:50:11;1.13;;;0.60;;
489;SDS011;231;48.120;11.576;2023-08-06T10:52:40;1.63;;;0.70;;
489;SDS011;231;48.120;11.576;2023-08-06T10:55:08;0.77;;;0.70;;
489;SDS011;231;48.120;11.576;2023-08-06T10:57:35;0.77;;;0.63;;
489;SDS011;231;48.120;11.576;2023-08-06T11:00:03;1.90;;;1.03;;
489;SDS011;231;48.120;11.576;2023-08-06T11:02:32;0.80;;;0.80;;
489;SDS011;231;48.120;11.576;2023-08-06T11:05:04;0.80;;;0.70;;
489;SDS011;231;48.120;11.576;2023-08-06T11:07:32;0.77;;;0.63;;
489;SDS011;231;48.120;11.576;2023-08-06T11:10:04;0.80;;;0.70;;
489;SDS011;231;48.120;11.576;2023-08-06T11:12:33;2.83;;;1.10;;
489;SDS011;231;48.120;11.576;2023-08-06T11:15:00;0.60;;;0.60;;
489;SDS011;231;48.120;11.576;2023-08-06T11:17:28;1.10;;;0.40;;
489;SDS011;231;48.120;11.576;2023-08-06T11:20:00;1.00;;;0.60;;
489;SDS011;231;48.120;11.576;2023-08-06T11:22:28;1.47;;;0.47;;
489;SDS011;231;48.120;11.576;2023-08-06T11:24:56;0.50;;;0.47;;
489;SDS011;231;48.120;11.576;2023-08-06T11:27:26;0.83;;;0.47;;
489;SDS011;231;48.120;11.576;2023-08-06T11:29:54;0.60;;;0.43;;
489;SDS011;231;48.120;11.576;2023-08-06T11:32:21;0.50;;;0.50;;
489;SDS011;231;48.120;11.576;2023-08-06T11:34:48;1.27;;;0.50;;
489;SDS011;231;48.120;11.576;2023-08-06T11:37:15;0.40;;;0.40;;
489;SDS011;231;48.120;11.576;2023-08-06T11:39:46;0.50;;;0.40;;
489;SDS011;231;48.120;11.576;2023-08-06T11:42:14;3.37;;;0.50;;
489;SDS011;231;48.120;11.576;2023-08-06T11:44:43;0.50;;;0.40;;
489;SDS011;231;48.120;11.576;2023-08-06T11:47:12;0.50;;;0.50;;
489;SDS011;231;48.120;11.576;2023-08-06T11:49:41;0.50;;;0.40;;
489;SDS011;231;48.120;11.576;2023-08-06T11:52:11;0.50;;;0.40;;
489;SDS011;231;48.120;11.576;2023-08-06T11:54:40;0.57;;;0.43;;
489;SDS011;231;48.120;11.576;2023-08-06T11:57:07;0.60;;;0.53;;
489;SDS011;231;48.120;11.576;2023-08-06T11:59:34;0.80;;;0.60;;
489;SDS011;231;48.120;11.576;2023-08-06T12:02:04;0.70;;;0.50;;
489;SDS011;231;48.120;11.576;2023-08-06T12:07:25;0.80;;;0.80;;
489;SDS011;231;48.120;11.576;2023-08-06T12:09:53;0.93;;;0.50;;
489;SDS011;231;48.120;11.576;2023-08-06T12:12:20;0.50;;;0.50;;
489;SDS011;231;48.120;11.576;2023-08-06T12:14:47;1.63;;;0.60;;
489;SDS011;231;48.120;11.576;2023-08-06T12:17:15;0.87;;;0.50;;
489;SDS011;231;48.120;11.576;2023-08-06T12:19:43;0.77;;;0.60;;
489;SDS011;231;48.120;11.576;2023-08-06T12:22:11;0.73;;;0.60;;
489;SDS011;231;48.120;11.576;2023-08-06T12:24:38;5.23;;;0.67;;
489;SDS011;231;48.120;11.576;2023-08-06T12:27:05;0.57;;;0.53;;
489;SDS011;231;48.120;11.576;2023-08-06T12:29:32;1.77;;;0.67;;
489;SDS011;231;48.120;11.576;2023-08-06T12:31:59;0.40;;;0.30;;
489;SDS011;231;48.120;11.576;2023-08-06T12:34:27;0.60;;;0.50;;
489;SDS011;231;48.120;11.576;2023-08-06T12:36:54;0.50;;;0.40;;
489;SDS011;231;48.120;11.576;2023-08-06T12:39:20;1.00;;;0.90;;
489;SDS011;231;48.120;11.576;2023-08-06T12:41:47;0.50;;;0.47;;
489;SDS011;231;48.120;11.576;2023-08-06T12:44:14;0.50;;;0.50;;
489;SDS011;231;48.120;11.576;2023-08-06T12:46:41;0.50;;;0.40;;
489;SDS011;231;48.120;11.576;2023-08-06T12:49:08;3.50;;;0.70;;
489;SDS011;231;48.120;11.576;2023-08-06T12:51:36;0.53;;;0.40;;
489;SDS011;231;48.120;11.576;2023-08-06T12:54:03;0.40;;;0.40;;
489;SDS011;231;48.120;11.576;2023-08-06T12:56:30;0.60;;;0.37;;
489;SDS011;231;48.120;11.576;2023-08-06T12:58:57;0.60;;;0.50;;
489;SDS011;231;48.120;11.576;2023-08-06T13:01:23;0.57;;;0.47;;
489;SDS011;231;48.120;11.576;2023-08-06T13:03:50;0.70;;;0.50;;
489;SDS011;231;48.120;11.576;2023-08-06T13:06:17;0.57;;;0.43;;
489;SDS011;231;48.120;11.576;2023-08-06T13:08:45;0.70;;;0.50;;
489;SDS011;231;48.120;11.576;2023-08-06T13:11:12;0.70;;;0.60;;
489;SDS011;231;48.120;11.576;2023-08-06T13:13:39;1.03;;;0.60;;
489;SDS011;231;48.120;11.576;2023-08-06T13:16:06;0.40;;;0.40;;
489;SDS011;231;48.120;11.576;2023-08-06T13:18:33;0.90;;;0.60;;
489;SDS011;231;48.120;11.576;2023-08-06T13:20:59;0.53;;;0.47;;
489;SDS011;231;48.120;11.576;2023-08-06T13:23:26;0.80;;;0.50;;
489;SDS011;231;48.120;11.576;2023-08-06T13:25:54;1.10;;;0.77;;
489;SDS011;231;48.120;11.576;2023-08-06T13:28:21;0.70;;;0.60;;
489;SDS011;231;48.120;11.576;2023-08-06T13:30:48;0.80;;;0.47;;
489;SDS011;231;48.120;11.576;2023-08-06T13:33:15;0.50;;;0.50;;
489;SDS011;231;48.120;11.576;2023-08-06T13:35:41;0.50;;;0.40;;
489;SDS011;231;48.120;11.576;2023-08-06T13:38:08;0.40;;;0.40;;
489;SDS011;231;48.120;11.576;2023-08-06T13:40:35;0.60;;;0.60;;
489;SDS011;231;48.120;11.576;2023-08-06T13:43:04;0.50;;;0.40;;
489;SDS011;231;48.120;11.576;2023-08-06T13:45:30;0.63;;;0.60;;
489;SDS011;231;48.120;11.576;2023-08-06T13:47:59;0.50;;;0.50;;
489;SDS011;231;48.120;11.576;2023-08-06T13:50:26;0.50;;;0.50;;
489;SDS011;231;48.120;11.576;2023-08-06T13:52:53;0.60;;;0.40;;
489;SDS011;231;48.120;11.576;2023-08-06T13:55:20;0.60;;;0.60;;
489;SDS011;231;48.120;11.576;2023-08-06T13:57:47;0.60;;;0.50;;
489;SDS011;231;48.120;11.576;2023-08-06T14:00:16;0.70;;;0.50;;
489;SDS011;231;48.120;11.576;2023-08-06T14:02:43;0.60;;;0.50;;
489;SDS011;231;48.120;11.576;2023-08-06T14:05:10;0.70;;;0.60;;
489;SDS011;231;48.120;11.576;2023-08-06T14:07:36;2.00;;;0.50;;
489;SDS011;231;48.120;11.576;2023-08-06T14:10:04;0.90;;;0.50;;
489;SDS011;231;48.120;11.576;2023-08-06T14:12:31;0.63;;;0.57;;
489;SDS011;231;48.120;11.576;2023-08-06T14:14:58;1.70;;;0.83;;
489;SDS011;231;48.120;11.576;2023-08-06T14:17:26;0.70;;;0.60;;
489;SDS011;231;48.120;11.576;2023-08-06T14:19:53;0.53;;;0.50;;
489;SDS011;231;48.120;11.576;2023-08-06T14:22:21;1.23;;;0.53;;
489;SDS011;231;48.120;11.576;2023-08-06T14:24:48;1.80;;;0.77;;
489;SDS011;231;48.120;11.576;2023-08-06T14:27:15;0.80;;;0.80;;
489;SDS011;231;48.120;11.576;2023-08-06T14:29:42;1.00;;;0.60;;
489;SDS011;231;48.120;11.576;2023-08-06T14:32:08;0.73;;;0.47;;
489;SDS011;231;48.120;11.576;2023-08-06T14:34:36;0.83;;;0.70;;
489;SDS011;231;48.120;11.576;2023-08-06T14:37:03;1.13;;;0.87;;
489;SDS011;231;48.120;11.576;2023-08-06T14:39:30;1.33;;;0.73;;
489;SDS011;231;48.120;11.576;2023-08-06T14:41:57;4.60;;;0.90;;
489;SDS011;231;48.120;11.576;2023-08-06T14:44:24;0.67;;;0.60;;
489;SDS011;231;48.120;11.576;2023-08-06T14:46:50;0.90;;;0.63;;
489;SDS011;231;48.120;11.576;2023-08-06T14:49:17;0.67;;;0.60;;
489;SDS011;231;48.120;11.576;2023-08-06T14:51:45;1.13;;;0.80;;
489;SDS011;231;48.120;11.576;2023-08-06T14:54:12;1.67;;;0.70;;
489;SDS011;231;48.120;11.576;2023-08-06T14:56:39;0.83;;;0.73;;
489;SDS011;231;48.120;11.576;2023-08-06T14:59:06;0.82;;;0.73;;
489;SDS011;231;48.120;11.576;2023-08-06T15:01:32;0.90;;;0.80;;
489;SDS011;231;48.120;11.576;2023-08-06T15:03:59;1.50;;;0.90;;
489;SDS011;231;48.120;11.576;2023-08-06T15:06:26;1.10;;;0.63;;
489;SDS011;231;48.120;11.576;2023-08-06T15:08:54;2.10;;;0.80;;
489;SDS011;231;48.120;11.576;2023-08-06T15:11:23;1.23;;;0.60;;
489;SDS011;231;48.120;11.576;2023-08-06T15:13:50;0.80;;;0.77;;
489;SDS011;231;48.120;11.576;2023-08-06T15:16:17;0.90;;;0.70;;
489;SDS011;231;48.120;11.576;2023-08-06T15:18:44;0.73;;;0.70;;
489;SDS011;231;48.120;11.576;2023-08-06T15:21:11;0.87;;;0.70;;
489;SDS011;231;48.120;11.576;2023-08-06T15:23:37;0.50;;;0.50;;
489;SDS011;231;48.120;11.576;2023-08-06T15:26:06;1.10;;;1.00;;
489;SDS011;231;48.120;11.576;2023-08-06T15:28:32;1.40;;;0.60;;
489;SDS011;231;48.120;11.576;2023-08-06T15:30:59;0.90;;;0.80;;
489;SDS011;231;48.120;11.576;2023-08-06T15:33:29;1.33;;;0.80;;